Terminal Aerodrome Forecast
Issued by NWS

Home | Current Version | Previous Version | Text Only | Print | Product List | Glossary On
Versions: 1 2 3 4 5 6 7 8 9 10 11 12 13 14 15 16 17 18 19 20 21 22 23 24 25 26 27 28 29 30 31 32 33 34 35 36
000
FTUS41 KBOX 281129
TAFFMH
TAF
KFMH 281129Z 2812/2912 22011G19KT P6SM BKN030
     FM281400 22014G23KT P6SM BKN060
     FM282200 22014G27KT P6SM VCSH BKN200
     FM290000 23011G23KT 5SM -SHRA BR BKN050
     FM290400 24006KT 6SM BR BKN008
     FM290600 VRB03KT 6SM BR SCT008=

USA.gov is the U.S. government's official web portal to all federal, state and local government web resources and services.